Time;durP1;ratioP1;P1;durP2;ratioP2;P2;SDS_P1;SDS_P2;PMS_P1;PMS_P2;Temp;Humidity;BMP_temperature;BMP_pressure;BME280_temperature;BME280_humidity;BME280_pressure;Samples;Min_cycle;Max_cycle;Signal;HPM_P1;HPM_P2
2021/12/07 00:02:01;;;;;;;;;;;;;;;0.19;100.00;100427.50;5072084;28;19925;-53
2021/12/07 00:04:28;;;;;;;;;;;;;;;0.21;100.00;100435.22;5044733;28;20000;-58
2021/12/07 00:06:55;;;;;;;;;;;;;;;0.11;100.00;100440.66;5045325;28;19925;-58
2021/12/07 00:09:22;;;;;;;;;;;;;;;0.22;100.00;100436.91;5057736;28;19979;-57
2021/12/07 00:11:49;;;;;;;;;;;;;;;0.16;100.00;100443.97;5051135;28;19928;-58
2021/12/07 00:14:23;;;;;;;;;;;;;;;0.23;100.00;100446.38;5052030;28;20371;-49
2021/12/07 00:16:51;;;;;;;;;;;;;;;0.24;100.00;100440.31;5051194;28;19929;-48
2021/12/07 00:19:18;;;;;;;;;;;;;;;0.25;100.00;100440.25;5046789;28;19929;-51
2021/12/07 00:21:45;;;;;;;;;;;;;;;0.29;100.00;100435.84;5061453;28;20910;-56
2021/12/07 00:24:12;;;;;;;;;;;;;;;0.23;100.00;100429.13;5076424;28;19956;-48
2021/12/07 00:26:39;;;;;;;;;;;;;;;0.22;100.00;100434.31;5048167;28;19968;-48
2021/12/07 00:29:07;;;;;;;;;;;;;;;0.17;100.00;100426.69;5042678;28;20043;-48
2021/12/07 00:31:41;;;;;;;;;;;;;;;0.20;100.00;100431.78;5039703;28;19925;-49
2021/12/07 00:34:24;;;;;;;;;;;;;;;0.25;100.00;100436.84;5070290;28;19932;-57
2021/12/07 00:36:50;;;;;;;;;;;;;;;0.25;100.00;100442.84;5047219;28;19933;-53
2021/12/07 00:39:19;;;;;;;;;;;;;;;0.31;100.00;100457.34;5079726;28;19924;-56
2021/12/07 00:41:46;;;;;;;;;;;;;;;0.31;100.00;100468.56;5047647;28;19933;-56
2021/12/07 00:44:13;;;;;;;;;;;;;;;0.25;100.00;100467.88;5086624;28;19933;-49
2021/12/07 00:46:40;;;;;;;;;;;;;;;0.25;100.00;100460.13;5054085;28;19960;-54
2021/12/07 00:49:07;;;;;;;;;;;;;;;0.22;100.00;100453.28;5039146;28;19982;-48
2021/12/07 00:51:33;;;;;;;;;;;;;;;0.25;100.00;100460.94;5071258;28;19925;-49
2021/12/07 00:54:00;;;;;;;;;;;;;;;0.28;100.00;100463.44;5041731;28;19928;-52
2021/12/07 00:56:27;;;;;;;;;;;;;;;0.36;100.00;100465.00;5038147;28;19925;-54
2021/12/07 00:58:54;;;;;;;;;;;;;;;0.40;100.00;100462.25;5046933;28;19928;-54
2021/12/07 01:01:20;;;;;;;;;;;;;;;0.33;100.00;100464.16;5046206;28;19983;-49
2021/12/07 01:03:48;;;;;;;;;;;;;;;0.34;100.00;100465.00;5039706;28;19929;-49
2021/12/07 01:25:22;;;;;;;;;;;;;;;0.27;100.00;100482.47;5064441;28;20067;-49
2021/12/07 01:27:51;;;;;;;;;;;;;;;0.30;100.00;100489.28;5077342;28;19925;-49
2021/12/07 01:30:35;;;;;;;;;;;;;;;0.29;100.00;100487.59;5041964;28;19970;-48
2021/12/07 01:42:45;;;;;;;;;;;;;;;0.25;100.00;100493.75;5051960;28;19929;-49
2021/12/07 01:47:00;;;;;;;;;;;;;;;0.28;100.00;100488.47;5077554;28;19931;-52
2021/12/07 01:52:31;;;;;;;;;;;;;;;0.27;100.00;100491.94;5034383;28;20418;-50
2021/12/07 01:59:31;;;;;;;;;;;;;;;0.25;100.00;100515.28;5031680;28;20307;-50
2021/12/07 02:00:40;;;;;;;;;;;;;;;0.28;100.00;100524.69;5033675;28;19925;-56
2021/12/07 02:03:07;;;;;;;;;;;;;;;0.32;100.00;100531.47;5067836;28;19951;-56
2021/12/07 02:05:34;;;;;;;;;;;;;;;0.32;100.00;100539.25;5035255;28;19987;-56
2021/12/07 02:08:01;;;;;;;;;;;;;;;0.33;100.00;100538.38;5041459;28;19925;-55
2021/12/07 02:10:29;;;;;;;;;;;;;;;0.35;100.00;100536.56;5042107;28;19925;-56
2021/12/07 02:13:03;;;;;;;;;;;;;;;0.39;100.00;100527.81;5045568;28;19933;-56
2021/12/07 02:15:30;;;;;;;;;;;;;;;0.38;100.00;100538.22;5037283;28;19925;-56
2021/12/07 02:17:56;;;;;;;;;;;;;;;0.32;100.00;100532.31;5045680;28;20434;-56
2021/12/07 02:20:24;;;;;;;;;;;;;;;0.37;100.00;100536.50;5076382;28;19955;-56
2021/12/07 02:22:51;;;;;;;;;;;;;;;0.39;100.00;100543.34;5047673;28;19931;-55
2021/12/07 02:25:18;;;;;;;;;;;;;;;0.40;100.00;100541.63;5076614;28;20311;-53
2021/12/07 02:27:46;;;;;;;;;;;;;;;0.40;100.00;100537.28;5038541;28;20643;-55
2021/12/07 02:30:14;;;;;;;;;;;;;;;0.42;100.00;100547.59;5037056;28;19929;-57
2021/12/07 02:32:41;;;;;;;;;;;;;;;0.40;100.00;100549.41;5040952;28;19935;-56
2021/12/07 02:35:09;;;;;;;;;;;;;;;0.43;100.00;100550.13;5045711;28;19925;-57
2021/12/07 02:37:36;;;;;;;;;;;;;;;0.41;100.00;100554.53;5048902;28;19925;-56
2021/12/07 02:40:05;;;;;;;;;;;;;;;0.42;100.00;100563.97;5078054;28;19929;-55
2021/12/07 02:42:32;;;;;;;;;;;;;;;0.42;100.00;100568.28;5037627;28;19951;-57
2021/12/07 02:44:59;;;;;;;;;;;;;;;0.41;100.00;100566.59;5042243;28;19934;-56
2021/12/07 02:47:26;;;;;;;;;;;;;;;0.40;100.00;100570.94;5031837;28;19936;-56
2021/12/07 02:49:52;;;;;;;;;;;;;;;0.44;100.00;100577.72;5031261;28;19932;-56
2021/12/07 02:52:19;;;;;;;;;;;;;;;0.42;100.00;100579.47;5043711;28;19925;-56
2021/12/07 02:54:49;;;;;;;;;;;;;;;0.37;100.00;100580.50;5051421;28;19928;-55
2021/12/07 02:57:17;;;;;;;;;;;;;;;0.42;100.00;100589.84;5078914;28;19929;-53
2021/12/07 02:59:51;;;;;;;;;;;;;;;0.42;100.00;100589.00;5076385;28;20683;-56
2021/12/07 03:02:19;;;;;;;;;;;;;;;0.42;100.00;100595.00;5070340;28;19925;-57
2021/12/07 03:04:58;;;;;;;;;;;;;;;0.44;100.00;100592.41;5033558;28;20304;-57
2021/12/07 03:26:24;;;;;;;;;;;;;;;0.44;100.00;100616.53;5043347;28;19936;-56
2021/12/07 03:28:51;;;;;;;;;;;;;;;0.42;100.00;100622.63;5083585;28;20326;-47
2021/12/07 03:31:18;;;;;;;;;;;;;;;0.40;100.00;100622.69;5075056;28;19933;-47
2021/12/07 03:33:45;;;;;;;;;;;;;;;0.42;100.00;100633.81;5041557;28;19969;-47
2021/12/07 03:36:12;;;;;;;;;;;;;;;0.37;100.00;100634.84;5048755;28;20406;-56
2021/12/07 03:38:39;;;;;;;;;;;;;;;0.37;100.00;100633.13;5047537;28;20343;-57
2021/12/07 03:41:06;;;;;;;;;;;;;;;0.40;100.00;100637.38;5055390;28;19931;-55
2021/12/07 03:43:33;;;;;;;;;;;;;;;0.38;100.00;100631.38;5048972;28;19924;-56
2021/12/07 03:46:01;;;;;;;;;;;;;;;0.32;100.00;100634.97;5070118;28;19952;-55
2021/12/07 03:48:28;;;;;;;;;;;;;;;0.31;100.00;100628.97;5035967;28;19929;-57
2021/12/07 03:50:54;;;;;;;;;;;;;;;0.29;100.00;100645.41;5037399;28;20303;-57
2021/12/07 03:53:21;;;;;;;;;;;;;;;0.29;100.00;100645.41;5048177;28;20035;-56
2021/12/07 03:55:48;;;;;;;;;;;;;;;0.29;100.00;100650.59;5073280;28;19933;-56
2021/12/07 03:58:15;;;;;;;;;;;;;;;0.28;100.00;100654.03;5044840;28;19990;-57
2021/12/07 04:00:43;;;;;;;;;;;;;;;0.30;100.00;100654.84;5039983;28;19979;-56
2021/12/07 04:03:11;;;;;;;;;;;;;;;0.30;100.00;100658.28;5037824;28;20351;-57
2021/12/07 04:05:45;;;;;;;;;;;;;;;0.26;100.00;100661.84;5038327;28;19929;-56
2021/12/07 04:08:14;;;;;;;;;;;;;;;0.28;100.00;100672.16;5074280;28;20277;-56
2021/12/07 04:10:41;;;;;;;;;;;;;;;0.26;100.00;100673.91;5048408;28;19929;-56
2021/12/07 04:13:08;;;;;;;;;;;;;;;0.26;100.00;100689.44;5044333;28;19967;-54
2021/12/07 04:15:34;;;;;;;;;;;;;;;0.26;100.00;100692.03;5075997;28;19925;-56
2021/12/07 04:18:02;;;;;;;;;;;;;;;0.31;100.00;100695.34;5030763;28;20067;-56
2021/12/07 04:20:28;;;;;;;;;;;;;;;0.36;100.00;100692.66;5040203;28;19925;-56
2021/12/07 04:22:55;;;;;;;;;;;;;;;0.37;100.00;100687.44;5045197;28;20354;-56
2021/12/07 04:25:23;;;;;;;;;;;;;;;0.39;100.00;100684.81;5044376;28;19925;-56
2021/12/07 04:27:51;;;;;;;;;;;;;;;0.37;100.00;100692.63;5058036;28;19978;-56
2021/12/07 04:30:26;;;;;;;;;;;;;;;0.39;100.00;100696.00;5082868;28;19928;-56
2021/12/07 04:32:53;;;;;;;;;;;;;;;0.39;100.00;100700.34;5036244;28;19933;-55
2021/12/07 04:35:20;;;;;;;;;;;;;;;0.41;100.00;100698.56;5046210;28;19932;-56
2021/12/07 04:37:46;;;;;;;;;;;;;;;0.43;100.00;100702.81;5032266;28;19991;-56
2021/12/07 04:40:15;;;;;;;;;;;;;;;0.43;100.00;100709.72;5046510;28;19983;-56
2021/12/07 04:42:42;;;;;;;;;;;;;;;0.43;100.00;100705.41;5043799;28;19935;-57
2021/12/07 04:45:14;;;;;;;;;;;;;;;0.45;100.00;100711.41;5047994;28;19978;-57
2021/12/07 04:58:27;;;;;;;;;;;;;;;0.53;100.00;100712.94;5079810;28;20289;-55
2021/12/07 05:00:54;;;;;;;;;;;;;;;0.52;100.00;100724.16;5083564;28;19974;-57
2021/12/07 05:03:22;;;;;;;;;;;;;;;0.52;100.00;100729.34;5054396;28;20343;-56
2021/12/07 05:05:52;;;;;;;;;;;;;;;0.50;100.00;100719.91;5055359;28;19925;-47
2021/12/07 05:09:19;;;;;;;;;;;;;;;0.46;100.00;100720.88;5086788;28;19925;-56
2021/12/07 05:13:52;;;;;;;;;;;;;;;0.47;100.00;100719.97;5052738;28;19924;-57
2021/12/07 05:24:22;;;;;;;;;;;;;;;0.48;100.00;100752.72;5082083;28;20019;-47
2021/12/07 05:37:59;;;;;;;;;;;;;;;0.31;100.00;100786.78;5054283;28;20455;-57
2021/12/07 05:40:26;;;;;;;;;;;;;;;0.30;100.00;100779.03;5078821;28;19925;-51
2021/12/07 05:42:53;;;;;;;;;;;;;;;0.25;100.00;100780.91;5052527;28;19951;-52
2021/12/07 05:45:22;;;;;;;;;;;;;;;0.26;100.00;100801.56;5052354;28;19925;-55
2021/12/07 05:47:49;;;;;;;;;;;;;;;0.25;100.00;100804.19;5051856;28;20372;-49
2021/12/07 05:50:18;;;;;;;;;;;;;;;0.26;100.00;100785.16;5051895;28;19925;-48
2021/12/07 05:52:44;;;;;;;;;;;;;;;0.30;100.00;100774.72;5051675;28;19933;-48
2021/12/07 05:55:11;;;;;;;;;;;;;;;0.28;100.00;100792.00;5050339;28;19936;-57
2021/12/07 05:57:38;;;;;;;;;;;;;;;0.30;100.00;100792.84;5051743;28;19930;-56
2021/12/07 06:00:06;;;;;;;;;;;;;;;0.29;100.00;100783.34;5051505;28;19932;-50
2021/12/07 06:02:33;;;;;;;;;;;;;;;0.35;100.00;100790.13;5050437;28;20395;-57
2021/12/07 06:05:00;;;;;;;;;;;;;;;0.31;100.00;100789.38;5048934;28;19936;-52
2021/12/07 06:07:27;;;;;;;;;;;;;;;0.32;100.00;100808.31;5081878;28;19928;-58
2021/12/07 06:09:53;;;;;;;;;;;;;;;0.30;100.00;100808.34;5046420;28;19925;-57
2021/12/07 06:12:20;;;;;;;;;;;;;;;0.27;100.00;100816.19;5050050;28;20342;-53
2021/12/07 06:14:47;;;;;;;;;;;;;;;0.25;100.00;100830.88;5053153;28;19933;-52
2021/12/07 06:17:19;;;;;;;;;;;;;;;0.26;100.00;100805.84;5020765;28;19971;-53
2021/12/07 06:19:50;;;;;;;;;;;;;;;0.25;100.00;100819.69;5046092;28;19925;-53
2021/12/07 06:22:19;;;;;;;;;;;;;;;0.24;100.00;100825.75;5032625;28;20015;-58
2021/12/07 06:24:51;;;;;;;;;;;;;;;0.28;100.00;100817.03;5040573;28;19932;-52
2021/12/07 06:27:20;;;;;;;;;;;;;;;0.28;100.00;100828.22;5066814;28;19925;-58
2021/12/07 06:29:47;;;;;;;;;;;;;;;0.27;100.00;100838.59;5043118;28;20419;-50
2021/12/07 06:32:17;;;;;;;;;;;;;;;0.28;100.00;100837.72;5042627;28;20315;-57
2021/12/07 06:34:46;;;;;;;;;;;;;;;0.28;100.00;100842.91;5042498;28;19932;-52
2021/12/07 06:37:18;;;;;;;;;;;;;;;0.28;100.00;100845.50;5040563;28;19925;-57
2021/12/07 06:39:45;;;;;;;;;;;;;;;0.26;100.00;100845.53;5041958;28;20284;-53
2021/12/07 06:42:12;;;;;;;;;;;;;;;0.26;100.00;100853.28;5039685;28;19924;-54
2021/12/07 06:44:48;;;;;;;;;;;;;;;0.26;100.00;100852.41;5039941;28;20212;-52
2021/12/07 06:47:24;;;;;;;;;;;;;;;0.25;100.00;100845.56;5040228;28;19928;-56
2021/12/07 06:49:52;;;;;;;;;;;;;;;0.25;100.00;100840.41;5040215;28;20384;-52
2021/12/07 06:52:20;;;;;;;;;;;;;;;0.24;100.00;100833.50;5070757;28;19929;-57
2021/12/07 06:54:48;;;;;;;;;;;;;;;0.22;100.00;100837.84;5043639;28;19933;-53
2021/12/07 06:57:19;;;;;;;;;;;;;;;0.22;100.00;100843.91;5048141;28;19931;-53
2021/12/07 06:59:53;;;;;;;;;;;;;;;0.25;100.00;100837.81;5040497;28;19937;-53
2021/12/07 07:02:22;;;;;;;;;;;;;;;0.23;100.00;100836.97;5056547;28;19925;-57
2021/12/07 07:04:49;;;;;;;;;;;;;;;0.20;100.00;100835.31;5044222;28;19925;-57
2021/12/07 07:07:18;;;;;;;;;;;;;;;0.15;100.00;100835.41;5044683;28;19951;-53
2021/12/07 07:09:49;;;;;;;;;;;;;;;0.15;100.00;100834.53;5049497;28;19976;-51
2021/12/07 07:12:16;;;;;;;;;;;;;;;0.13;100.00;100842.34;5062848;28;20032;-58
2021/12/07 07:14:44;;;;;;;;;;;;;;;0.11;100.00;100849.31;5049151;28;20411;-52
2021/12/07 07:17:17;;;;;;;;;;;;;;;0.06;100.00;100853.72;5046401;28;19972;-57
2021/12/07 07:19:44;;;;;;;;;;;;;;;0.06;100.00;100864.06;5066729;28;20384;-58
2021/12/07 07:22:11;;;;;;;;;;;;;;;0.09;100.00;100863.16;5040673;28;19933;-57
2021/12/07 07:24:38;;;;;;;;;;;;;;;0.05;100.00;100872.69;5044489;28;19936;-57
2021/12/07 07:27:06;;;;;;;;;;;;;;;0.03;100.00;100869.31;5041015;28;19953;-54
2021/12/07 07:29:40;;;;;;;;;;;;;;;0.04;100.00;100875.31;5037910;28;19929;-51
2021/12/07 07:32:09;;;;;;;;;;;;;;;0.03;100.00;100871.88;5040049;28;19931;-57
2021/12/07 07:34:39;;;;;;;;;;;;;;;0.01;100.00;100863.31;5034449;28;19933;-53
2021/12/07 07:37:10;;;;;;;;;;;;;;;0.02;100.00;100870.19;5055570;28;20311;-58
2021/12/07 07:39:39;;;;;;;;;;;;;;;-0.02;100.00;100868.53;5054366;28;19947;-51
2021/12/07 07:42:07;;;;;;;;;;;;;;;-0.02;100.00;100873.72;5052883;28;20273;-58
2021/12/07 07:44:35;;;;;;;;;;;;;;;-0.06;100.00;100865.16;5044323;28;19978;-53
2021/12/07 07:47:05;;;;;;;;;;;;;;;-0.05;100.00;100871.19;5051556;28;19957;-55
2021/12/07 07:49:34;;;;;;;;;;;;;;;-0.06;100.00;100875.50;5085065;28;19925;-53
2021/12/07 07:52:05;;;;;;;;;;;;;;;-0.06;100.00;100877.25;5051168;28;20336;-55
2021/12/07 07:54:36;;;;;;;;;;;;;;;-0.01;100.00;100878.84;5052089;28;19925;-58
2021/12/07 07:57:03;;;;;;;;;;;;;;;0.06;100.00;100881.31;5052631;28;19925;-54
2021/12/07 07:59:33;;;;;;;;;;;;;;;0.08;100.00;100874.38;5053141;28;19939;-55
2021/12/07 08:02:02;;;;;;;;;;;;;;;0.02;100.00;100887.44;5084686;28;20364;-53
2021/12/07 08:04:34;;;;;;;;;;;;;;;0.00;100.00;100882.31;5048796;28;19925;-58
2021/12/07 08:07:02;;;;;;;;;;;;;;;0.05;100.00;100887.38;5085725;28;19931;-51
2021/12/07 08:09:33;;;;;;;;;;;;;;;0.10;100.00;100888.97;5053718;28;19952;-53
2021/12/07 08:12:06;;;;;;;;;;;;;;;0.19;100.00;100874.97;5051516;28;20347;-57
2021/12/07 08:14:33;;;;;;;;;;;;;;;0.28;100.00;100871.38;5053374;28;19924;-54
2021/12/07 08:17:03;;;;;;;;;;;;;;;0.34;100.00;100871.22;5085511;28;19925;-50
2021/12/07 08:19:34;;;;;;;;;;;;;;;0.49;100.00;100878.66;5048537;28;19929;-56
2021/12/07 08:22:01;;;;;;;;;;;;;;;0.59;100.00;100870.69;5050090;28;20625;-55
2021/12/07 08:24:28;;;;;;;;;;;;;;;0.62;100.00;100871.44;5052568;28;19924;-53
2021/12/07 08:26:55;;;;;;;;;;;;;;;0.73;100.00;100876.38;5053822;28;19947;-52
2021/12/07 08:29:36;;;;;;;;;;;;;;;0.79;100.00;100868.47;5053027;28;19925;-54
2021/12/07 08:32:05;;;;;;;;;;;;;;;0.91;100.00;100866.47;5084407;28;19932;-54
2021/12/07 08:34:34;;;;;;;;;;;;;;;0.95;100.00;100878.44;5052474;28;19931;-53
2021/12/07 08:37:03;;;;;;;;;;;;;;;1.02;100.00;100877.41;5053423;28;19929;-50
2021/12/07 08:39:34;;;;;;;;;;;;;;;1.06;100.00;100881.63;5051324;28;19929;-50
2021/12/07 08:42:05;;;;;;;;;;;;;;;1.06;100.00;100881.63;5083038;28;19929;-52
2021/12/07 08:44:31;;;;;;;;;;;;;;;1.17;100.00;100878.75;5048016;28;19925;-52
2021/12/07 08:46:58;;;;;;;;;;;;;;;1.17;100.00;100889.97;5048299;28;19925;-50
2021/12/07 08:49:25;;;;;;;;;;;;;;;1.29;100.00;100887.97;5080264;28;19932;-53
2021/12/07 08:51:52;;;;;;;;;;;;;;;1.36;100.00;100894.69;5049526;28;19924;-51
2021/12/07 08:59:40;;;;;;;;;;;;;;;1.52;100.00;100898.56;5047758;28;20412;-51
2021/12/07 09:02:07;;;;;;;;;;;;;;;1.71;100.00;100895.50;5048964;28;19931;-53
2021/12/07 09:04:34;;;;;;;;;;;;;;;1.75;100.00;100891.91;5051275;28;20346;-52
2021/12/07 09:07:01;;;;;;;;;;;;;;;2.01;100.00;100886.00;5055419;28;19928;-53
2021/12/07 09:09:28;;;;;;;;;;;;;;;2.14;100.00;100889.09;5055548;28;20438;-52
2021/12/07 09:11:55;;;;;;;;;;;;;;;2.53;100.00;100882.75;5055481;28;19936;-50
2021/12/07 09:14:23;;;;;;;;;;;;;;;2.82;100.00;100878.38;5055375;28;19925;-52
2021/12/07 09:16:49;;;;;;;;;;;;;;;3.04;100.00;100874.19;5086135;28;20362;-52
2021/12/07 09:19:16;;;;;;;;;;;;;;;3.07;100.00;100880.16;5052457;28;19931;-52
2021/12/07 09:21:43;;;;;;;;;;;;;;;3.31;100.00;100883.69;5052113;28;19931;-52
2021/12/07 09:24:09;;;;;;;;;;;;;;;3.24;100.00;100890.00;5052836;28;19929;-51
2021/12/07 09:26:36;;;;;;;;;;;;;;;3.03;100.00;100893.25;5054587;28;19931;-48
2021/12/07 09:29:03;;;;;;;;;;;;;;;2.83;100.00;100893.91;5055140;28;20627;-53
2021/12/07 09:31:30;;;;;;;;;;;;;;;2.95;100.00;100892.66;5087152;28;20363;-48
2021/12/07 09:33:57;;;;;;;;;;;;;;;2.98;100.00;100896.91;5052453;28;19925;-54
2021/12/07 09:36:25;;;;;;;;;;;;;;;2.96;100.00;100891.78;5083956;28;19925;-50
2021/12/07 09:38:54;;;;;;;;;;;;;;;3.09;100.00;100891.38;5083275;28;20445;-47
2021/12/07 09:41:20;;;;;;;;;;;;;;;3.07;100.00;100896.63;5052265;28;20354;-48
2021/12/07 09:43:47;;;;;;;;;;;;;;;3.04;100.00;100891.50;5051977;28;19925;-48
2021/12/07 09:46:14;;;;;;;;;;;;;;;2.91;100.00;100885.88;5049195;28;19924;-48
2021/12/07 09:48:41;;;;;;;;;;;;;;;2.93;100.00;100899.66;5051643;28;19929;-49
2021/12/07 09:51:08;;;;;;;;;;;;;;;2.74;100.00;100896.81;5084241;28;19929;-48
2021/12/07 09:53:35;;;;;;;;;;;;;;;2.70;100.00;100901.25;5051954;28;19925;-49
2021/12/07 09:56:03;;;;;;;;;;;;;;;2.65;100.00;100913.50;5050747;28;19929;-58
2021/12/07 09:58:30;;;;;;;;;;;;;;;2.56;100.00;100918.16;5054957;28;19924;-51
2021/12/07 10:00:57;;;;;;;;;;;;;;;2.57;100.00;100920.69;5054653;28;19925;-58
2021/12/07 10:03:24;;;;;;;;;;;;;;;2.54;100.00;100911.25;5052217;28;19925;-51
2021/12/07 10:05:52;;;;;;;;;;;;;;;2.63;100.00;100912.72;5067202;28;19932;-46
2021/12/07 10:08:18;;;;;;;;;;;;;;;2.62;100.00;100908.44;5051982;28;19928;-58
2021/12/07 10:10:51;;;;;;;;;;;;;;;2.62;100.00;100903.22;5066876;28;19925;-57
2021/12/07 10:13:20;;;;;;;;;;;;;;;2.65;100.00;100905.72;5051584;28;20019;-52
2021/12/07 10:15:48;;;;;;;;;;;;;;;2.61;100.00;100895.50;5049721;28;19929;-58
2021/12/07 10:18:16;;;;;;;;;;;;;;;2.65;100.00;100886.72;5050990;28;19925;-46
2021/12/07 10:21:05;;;;;;;;;;;;;;;2.70;100.00;100888.25;5053701;28;19952;-47
2021/12/07 10:23:33;;;;;;;;;;;;;;;2.70;100.00;100892.63;5051274;28;19978;-58
2021/12/07 10:26:10;;;;;;;;;;;;;;;2.69;100.00;100885.72;5050225;28;19933;-46
2021/12/07 10:28:39;;;;;;;;;;;;;;;2.73;100.00;100886.44;5053300;28;19931;-58
2021/12/07 10:31:05;;;;;;;;;;;;;;;2.73;100.00;100882.13;5054134;28;19931;-58
2021/12/07 10:33:42;;;;;;;;;;;;;;;2.72;100.00;100879.56;5050648;28;19925;-58
2021/12/07 10:36:13;;;;;;;;;;;;;;;2.67;100.00;100877.09;5052129;28;19928;-46
2021/12/07 10:38:40;;;;;;;;;;;;;;;2.67;100.00;100869.31;5054102;28;19925;-46
2021/12/07 10:41:08;;;;;;;;;;;;;;;2.66;100.00;100875.44;5086199;28;19925;-46
2021/12/07 10:43:38;;;;;;;;;;;;;;;2.68;100.00;100865.81;5053767;28;20002;-57
2021/12/07 10:46:24;;;;;;;;;;;;;;;2.77;100.00;100865.53;5081677;28;19975;-46
2021/12/07 10:48:50;;;;;;;;;;;;;;;2.70;100.00;100869.25;5051998;28;19967;-57
2021/12/07 10:51:17;;;;;;;;;;;;;;;2.72;100.00;100862.22;5085785;28;20263;-45
2021/12/07 10:53:53;;;;;;;;;;;;;;;2.72;100.00;100851.84;5053524;28;19970;-46
2021/12/07 10:56:29;;;;;;;;;;;;;;;2.70;100.00;100848.47;5050993;28;20003;-58
2021/12/07 10:59:01;;;;;;;;;;;;;;;2.72;100.00;100843.22;5049922;28;20007;-46
2021/12/07 11:01:34;;;;;;;;;;;;;;;2.77;100.00;100847.34;5050782;28;19944;-47
2021/12/07 11:04:19;;;;;;;;;;;;;;;2.77;100.00;100847.34;5053285;28;19970;-57
2021/12/07 11:07:04;;;;;;;;;;;;;;;2.80;100.00;100834.25;5050616;28;19925;-47
2021/12/07 11:09:38;;;;;;;;;;;;;;;2.84;100.00;100828.06;5051935;28;19936;-58
2021/12/07 11:12:09;;;;;;;;;;;;;;;2.84;100.00;100832.41;5053406;28;19932;-47
2021/12/07 11:14:53;;;;;;;;;;;;;;;2.83;100.00;100823.75;5051858;28;19924;-47
2021/12/07 11:17:21;;;;;;;;;;;;;;;2.87;100.00;100812.38;5052499;28;20391;-48
2021/12/07 11:19:49;;;;;;;;;;;;;;;2.92;100.00;100819.16;5050332;28;19925;-58
2021/12/07 11:22:19;;;;;;;;;;;;;;;2.99;100.00;100807.69;5051475;28;19979;-57
2021/12/07 11:24:46;;;;;;;;;;;;;;;3.03;100.00;100806.66;5053263;28;19948;-47
2021/12/07 11:29:59;;;;;;;;;;;;;;;3.11;100.00;100783.88;5050227;28;19925;-48
2021/12/07 11:32:25;;;;;;;;;;;;;;;3.12;100.00;100785.56;5085320;28;20338;-47
2021/12/07 11:34:52;;;;;;;;;;;;;;;3.15;100.00;100790.66;5052883;28;20360;-47
2021/12/07 11:37:22;;;;;;;;;;;;;;;3.17;100.00;100794.03;5052675;28;19924;-57
2021/12/07 11:39:55;;;;;;;;;;;;;;;3.18;100.00;100798.34;5050464;28;19925;-47
2021/12/07 11:42:25;;;;;;;;;;;;;;;3.19;100.00;100800.03;5081609;28;19932;-46
2021/12/07 11:44:56;;;;;;;;;;;;;;;3.27;100.00;100788.50;5064713;28;19970;-47
2021/12/07 11:47:28;;;;;;;;;;;;;;;3.30;100.00;100793.59;5081639;28;19952;-46
2021/12/07 11:49:55;;;;;;;;;;;;;;;3.30;100.00;100793.59;5051777;28;19925;-58
2021/12/07 11:52:22;;;;;;;;;;;;;;;3.31;100.00;100797.91;5081979;28;20384;-46
2021/12/07 11:54:49;;;;;;;;;;;;;;;3.31;100.00;100787.50;5081554;28;20772;-56
2021/12/07 11:57:17;;;;;;;;;;;;;;;3.35;100.00;100791.69;5050152;28;19925;-52
2021/12/07 11:59:44;;;;;;;;;;;;;;;3.37;100.00;100785.53;5052786;28;19929;-57
2021/12/07 12:02:13;;;;;;;;;;;;;;;3.44;100.00;100778.34;5052486;28;20326;-57
2021/12/07 12:04:42;;;;;;;;;;;;;;;3.43;100.00;100774.06;5051608;28;19948;-46
2021/12/07 12:07:09;;;;;;;;;;;;;;;3.48;100.00;100768.72;5052688;28;19932;-49
2021/12/07 12:09:37;;;;;;;;;;;;;;;3.51;100.00;100766.81;5084336;28;20396;-57
2021/12/07 12:12:03;;;;;;;;;;;;;;;3.57;100.00;100754.50;5084555;28;19939;-58
2021/12/07 12:14:30;;;;;;;;;;;;;;;3.56;100.00;100761.47;5052548;28;20168;-51
2021/12/07 12:17:15;;;;;;;;;;;;;;;3.57;100.00;100759.69;5052455;28;19947;-48
2021/12/07 12:20:00;;;;;;;;;;;;;;;3.61;100.00;100746.50;5052434;28;19925;-46
2021/12/07 12:22:27;;;;;;;;;;;;;;;3.65;100.00;100749.84;5052539;28;19925;-46
2021/12/07 12:24:55;;;;;;;;;;;;;;;3.66;100.00;100744.59;5052643;28;20398;-58
2021/12/07 12:27:25;;;;;;;;;;;;;;;3.74;100.00;100739.09;5066255;28;19929;-46
2021/12/07 12:29:52;;;;;;;;;;;;;;;3.81;100.00;100734.53;5080713;28;20368;-58
2021/12/07 12:32:45;;;;;;;;;;;;;;;3.93;100.00;100734.03;5052035;28;19925;-48
2021/12/07 12:35:12;;;;;;;;;;;;;;;3.90;100.00;100723.75;5049911;28;19974;-59
2021/12/07 12:37:40;;;;;;;;;;;;;;;4.02;100.00;100712.88;5048499;28;19929;-58
2021/12/07 12:40:12;;;;;;;;;;;;;;;3.98;100.00;100711.28;5085626;28;19932;-59
2021/12/07 12:42:39;;;;;;;;;;;;;;;3.98;100.00;100711.28;5085199;28;19932;-46
2021/12/07 12:45:18;;;;;;;;;;;;;;;4.03;100.00;100716.31;5052992;28;20383;-58
2021/12/07 12:47:44;;;;;;;;;;;;;;;4.05;100.00;100709.31;5054460;28;20368;-47
2021/12/07 12:50:11;;;;;;;;;;;;;;;4.11;100.00;100705.59;5085188;28;19929;-46
2021/12/07 12:52:42;;;;;;;;;;;;;;;4.10;100.00;100698.69;5053079;28;19924;-47
2021/12/07 12:55:27;;;;;;;;;;;;;;;4.10;100.00;100701.28;5052873;28;19929;-58
2021/12/07 12:57:54;;;;;;;;;;;;;;;4.10;100.00;100702.13;5056094;28;19948;-45
2021/12/07 13:00:21;;;;;;;;;;;;;;;4.05;100.00;100702.31;5053795;28;19936;-58
2021/12/07 13:02:57;;;;;;;;;;;;;;;4.06;100.00;100700.56;5053061;28;20399;-59
2021/12/07 13:05:33;;;;;;;;;;;;;;;4.04;100.00;100679.81;5070374;28;19990;-47
2021/12/07 13:08:15;;;;;;;;;;;;;;;4.05;100.00;100683.28;5055574;28;20383;-58
2021/12/07 13:11:02;;;;;;;;;;;;;;;4.03;100.00;100680.72;5055802;28;19954;-50
2021/12/07 13:13:30;;;;;;;;;;;;;;;4.01;100.00;100677.34;5053183;28;19931;-58
2021/12/07 13:15:57;;;;;;;;;;;;;;;4.05;100.00;100668.50;5083790;28;19947;-47
2021/12/07 13:18:28;;;;;;;;;;;;;;;4.01;100.00;100661.72;5052732;28;19925;-58
2021/12/07 13:20:56;;;;;;;;;;;;;;;3.97;100.00;100656.72;5055370;28;20273;-58
2021/12/07 13:23:31;;;;;;;;;;;;;;;3.99;100.00;100649.69;5070193;28;20379;-58
2021/12/07 13:25:58;;;;;;;;;;;;;;;4.00;100.00;100639.19;5052804;28;20643;-50
2021/12/07 13:28:25;;;;;;;;;;;;;;;3.94;100.00;100630.78;5052439;28;19937;-50
2021/12/07 13:30:53;;;;;;;;;;;;;;;3.91;100.00;100634.38;5050987;28;20452;-50
2021/12/07 13:33:20;;;;;;;;;;;;;;;3.85;100.00;100637.22;5051511;28;19925;-47
2021/12/07 13:35:48;;;;;;;;;;;;;;;3.82;100.00;100630.38;5052527;28;19932;-57
2021/12/07 13:38:22;;;;;;;;;;;;;;;3.81;100.00;100620.88;5083980;28;19932;-47
2021/12/07 13:40:50;;;;;;;;;;;;;;;3.75;100.00;100618.53;5050386;28;19933;-50
2021/12/07 13:43:30;;;;;;;;;;;;;;;3.80;100.00;100608.78;5052082;28;19952;-48
2021/12/07 13:46:15;;;;;;;;;;;;;;;3.77;100.00;100606.31;5050548;28;19979;-58
2021/12/07 13:48:42;;;;;;;;;;;;;;;3.76;100.00;100599.41;5051424;28;20364;-57
2021/12/07 13:51:10;;;;;;;;;;;;;;;3.76;100.00;100583.78;5069075;28;20360;-58
2021/12/07 13:53:36;;;;;;;;;;;;;;;3.70;100.00;100591.88;5054742;28;20453;-52
2021/12/07 13:56:03;;;;;;;;;;;;;;;3.72;100.00;100582.22;5053726;28;19990;-48
2021/12/07 13:58:33;;;;;;;;;;;;;;;3.71;100.00;100586.59;5052009;28;20319;-57
2021/12/07 14:01:01;;;;;;;;;;;;;;;3.65;100.00;100580.78;5083809;28;20004;-58
2021/12/07 14:03:28;;;;;;;;;;;;;;;3.64;100.00;100579.09;5086583;28;20380;-58
2021/12/07 14:05:55;;;;;;;;;;;;;;;3.66;100.00;100569.50;5054515;28;20364;-57
2021/12/07 14:08:24;;;;;;;;;;;;;;;3.60;100.00;100559.31;5054351;28;20354;-51
2021/12/07 14:10:52;;;;;;;;;;;;;;;3.51;100.00;100543.19;5053955;28;19932;-58
2021/12/07 14:13:19;;;;;;;;;;;;;;;3.64;100.00;100527.06;5052309;28;19929;-58
2021/12/07 14:16:06;;;;;;;;;;;;;;;3.52;100.00;100516.28;5049351;28;19924;-50
2021/12/07 14:18:35;;;;;;;;;;;;;;;3.46;100.00;100521.72;5082618;28;20020;-50
2021/12/07 14:21:03;;;;;;;;;;;;;;;3.45;100.00;100530.44;5051692;28;20329;-58
2021/12/07 14:23:37;;;;;;;;;;;;;;;3.45;100.00;100533.06;5084239;28;19925;-57